createdAt,value
2023-04-24T00:02:47.796Z,3.50
2023-04-24T00:05:35.271Z,4.40
2023-04-24T00:08:23.631Z,6.30
2023-04-24T00:11:10.972Z,6.93
2023-04-24T00:13:58.424Z,7.03
2023-04-24T00:16:45.870Z,4.27
2023-04-24T00:19:33.348Z,4.87
2023-04-24T00:22:21.681Z,5.73
2023-04-24T00:25:09.274Z,5.23
2023-04-24T00:27:56.680Z,6.23
2023-04-24T00:30:44.040Z,8.10
2023-04-24T00:33:31.411Z,4.70
2023-04-24T00:36:20.617Z,5.43
2023-04-24T00:39:09.693Z,6.30
2023-04-24T00:41:57.796Z,5.03
2023-04-24T00:44:45.299Z,5.47
2023-04-24T00:47:34.127Z,5.47
2023-04-24T00:50:22.641Z,5.80
2023-04-24T00:53:10.226Z,4.60
2023-04-24T00:55:58.048Z,5.07
2023-04-24T00:58:46.360Z,6.10
2023-04-24T01:01:33.912Z,4.90
2023-04-24T01:04:21.423Z,4.87
2023-04-24T01:07:11.555Z,4.43
2023-04-24T01:09:59.064Z,6.83
2023-04-24T01:12:46.480Z,5.97
2023-04-24T01:15:33.895Z,5.80
2023-04-24T01:18:22.781Z,4.80
2023-04-24T01:21:10.239Z,4.90
2023-04-24T01:23:57.633Z,4.93
2023-04-24T01:26:45.023Z,5.97
2023-04-24T01:29:32.380Z,4.97
2023-04-24T01:32:19.900Z,6.83
2023-04-24T01:35:08.062Z,6.37
2023-04-24T01:37:55.474Z,5.00
2023-04-24T01:40:42.901Z,5.40
2023-04-24T01:43:30.808Z,5.03
2023-04-24T01:46:18.369Z,6.40
2023-04-24T01:49:05.830Z,5.27
2023-04-24T01:51:53.302Z,5.27
2023-04-24T01:54:40.874Z,5.73
2023-04-24T01:57:28.457Z,6.73
2023-04-24T02:00:16.049Z,6.73
2023-04-24T02:03:03.570Z,5.97
2023-04-24T02:05:51.067Z,8.07
2023-04-24T02:08:38.448Z,11.47
2023-04-24T02:11:26.007Z,6.50
2023-04-24T02:14:13.537Z,6.27
2023-04-24T02:17:01.613Z,6.00
2023-04-24T02:19:49.018Z,8.27
2023-04-24T02:22:36.377Z,5.60
2023-04-24T02:25:23.874Z,6.27
2023-04-24T02:28:11.284Z,6.33
2023-04-24T02:30:59.508Z,5.37
2023-04-24T02:33:46.880Z,5.13
2023-04-24T02:36:34.393Z,6.23
2023-04-24T02:39:21.874Z,6.50
2023-04-24T02:42:09.217Z,6.60
2023-04-24T02:44:56.596Z,5.93
2023-04-24T02:47:43.984Z,5.10
2023-04-24T02:50:31.396Z,5.47
2023-04-24T02:53:18.752Z,5.00
2023-04-24T02:56:06.439Z,5.93
2023-04-24T02:58:53.847Z,5.27
2023-04-24T03:01:41.288Z,6.53
2023-04-24T03:04:28.926Z,5.43
2023-04-24T03:07:17.051Z,5.30
2023-04-24T03:10:04.701Z,6.07
2023-04-24T03:12:52.085Z,6.63
2023-04-24T03:15:39.468Z,6.47
2023-04-24T03:18:26.827Z,15.20
2023-04-24T03:21:14.202Z,41.80
2023-04-24T03:24:02.045Z,42.10
2023-04-24T03:26:49.503Z,33.43
2023-04-24T03:29:36.862Z,25.47
2023-04-24T03:32:25.137Z,18.20
2023-04-24T03:35:12.612Z,12.43
2023-04-24T03:37:59.988Z,9.07
2023-04-24T03:40:47.481Z,13.37
2023-04-24T03:43:35.521Z,4.50
2023-04-24T03:46:23.095Z,6.53
2023-04-24T03:49:10.495Z,3.73
2023-04-24T03:51:57.829Z,4.90
2023-04-24T03:54:45.174Z,5.90
2023-04-24T03:57:32.524Z,5.23
2023-04-24T04:00:20.408Z,8.23
2023-04-24T04:03:08.182Z,5.93
2023-04-24T04:05:55.834Z,4.80
2023-04-24T04:08:43.195Z,4.57
2023-04-24T04:11:31.520Z,6.80
2023-04-24T04:14:18.980Z,5.27
2023-04-24T04:17:06.337Z,4.80
2023-04-24T04:19:53.754Z,5.07
2023-04-24T04:22:44.091Z,4.63
2023-04-24T04:25:32.002Z,3.30
2023-04-24T04:28:20.781Z,3.20
2023-04-24T04:31:08.753Z,3.80
2023-04-24T04:33:56.135Z,4.87
2023-04-24T04:36:44.008Z,2.97
2023-04-24T04:39:31.557Z,4.57
2023-04-24T04:42:19.856Z,4.97
2023-04-24T04:45:09.703Z,2.70
2023-04-24T04:47:57.661Z,3.17
2023-04-24T04:50:45.496Z,4.60
2023-04-24T04:53:33.029Z,12.37
2023-04-24T04:56:20.411Z,6.23
2023-04-24T04:59:07.794Z,9.57
2023-04-24T05:01:55.351Z,5.40
2023-04-24T05:04:43.114Z,5.20
2023-04-24T05:07:30.790Z,2.17
2023-04-24T05:10:18.129Z,2.40
2023-04-24T05:13:05.806Z,2.83
2023-04-24T05:15:53.147Z,18.73
2023-04-24T05:18:40.491Z,11.40
2023-04-24T05:21:27.858Z,2.27
2023-04-24T05:24:15.279Z,5.57
2023-04-24T05:27:03.233Z,3.40
2023-04-24T05:29:50.620Z,2.60
2023-04-24T05:32:38.044Z,2.83
2023-04-24T05:35:25.939Z,2.30
2023-04-24T05:38:13.930Z,2.30
2023-04-24T05:41:01.878Z,2.53
2023-04-24T05:43:49.237Z,2.27
2023-04-24T05:46:36.799Z,2.60
2023-04-24T05:49:24.334Z,2.60
2023-04-24T05:52:11.737Z,2.10
2023-04-24T05:54:59.099Z,1.80
2023-04-24T05:57:46.789Z,1.93
2023-04-24T06:00:34.439Z,2.73
2023-04-24T06:03:22.305Z,2.07
2023-04-24T06:06:10.042Z,2.80
2023-04-24T06:08:57.957Z,1.60
2023-04-24T06:11:45.376Z,1.70
2023-04-24T06:14:32.798Z,1.50
2023-04-24T06:17:20.295Z,1.50
2023-04-24T06:20:08.923Z,1.60
2023-04-24T06:22:56.505Z,1.60
2023-04-24T06:25:43.911Z,3.17
2023-04-24T06:28:31.256Z,1.40
2023-04-24T06:31:18.618Z,1.53
2023-04-24T06:34:06.174Z,1.97
2023-04-24T06:36:53.558Z,2.80
2023-04-24T06:39:41.401Z,1.60
2023-04-24T06:42:28.886Z,1.57
2023-04-24T06:45:16.373Z,4.33
2023-04-24T06:48:03.825Z,1.93
2023-04-24T06:50:51.361Z,1.67
2023-04-24T06:53:38.724Z,2.50
2023-04-24T06:56:26.253Z,1.90
2023-04-24T06:59:13.625Z,1.70
2023-04-24T07:02:01.224Z,2.20
2023-04-24T07:04:48.644Z,2.70
2023-04-24T07:07:38.560Z,2.37
2023-04-24T07:10:28.057Z,1.73
2023-04-24T07:13:15.816Z,1.83
2023-04-24T07:16:03.525Z,2.05
2023-04-24T07:18:51.104Z,2.03
2023-04-24T07:21:38.445Z,1.80
2023-04-24T07:27:17.972Z,2.97
2023-04-24T07:30:05.855Z,1.83
2023-04-24T07:32:53.249Z,2.30
2023-04-24T07:35:40.741Z,1.65
2023-04-24T07:38:28.184Z,2.28
2023-04-24T07:41:15.994Z,1.52
2023-04-24T07:44:03.417Z,1.80
2023-04-24T07:46:50.975Z,3.20
2023-04-24T07:49:38.416Z,1.60
2023-04-24T07:52:26.078Z,2.03
2023-04-24T07:55:13.434Z,1.90
2023-04-24T07:58:00.838Z,1.97
2023-04-24T08:00:48.484Z,2.73
2023-04-24T08:03:36.173Z,1.93
2023-04-24T08:06:23.897Z,2.43
2023-04-24T08:09:11.318Z,2.23
2023-04-24T08:11:58.750Z,2.30
2023-04-24T08:14:46.250Z,2.00
2023-04-24T08:17:33.808Z,1.80
2023-04-24T08:20:21.301Z,2.67
2023-04-24T08:23:08.852Z,3.03
2023-04-24T08:25:56.255Z,2.00
2023-04-24T08:28:44.083Z,2.50
2023-04-24T08:31:31.754Z,2.00
2023-04-24T08:34:19.193Z,3.00
2023-04-24T08:37:06.809Z,2.33
2023-04-24T08:39:54.437Z,2.17
2023-04-24T08:42:44.296Z,2.10
2023-04-24T08:45:31.790Z,2.10
2023-04-24T08:48:29.823Z,1.90
2023-04-24T08:51:18.471Z,2.73
2023-04-24T08:54:06.428Z,1.70
2023-04-24T08:56:55.669Z,2.30
2023-04-24T08:59:43.858Z,2.60
2023-04-24T09:02:32.506Z,2.23
2023-04-24T09:05:20.108Z,2.33
2023-04-24T09:08:08.486Z,2.10
2023-04-24T09:10:55.953Z,1.93
2023-04-24T09:13:43.849Z,2.40
2023-04-24T09:16:31.543Z,2.20
2023-04-24T09:19:19.216Z,3.00
2023-04-24T09:22:07.549Z,2.20
2023-04-24T09:25:06.459Z,2.53
2023-04-24T09:27:56.040Z,2.33
2023-04-24T09:30:43.421Z,2.88
2023-04-24T09:33:31.235Z,3.15
2023-04-24T09:36:19.007Z,3.17
2023-04-24T09:39:09.109Z,2.40
2023-04-24T09:42:00.917Z,2.85
2023-04-24T09:44:58.839Z,3.35
2023-04-24T09:47:55.211Z,3.17
2023-04-24T09:50:48.023Z,3.30
2023-04-24T09:53:35.678Z,3.50
2023-04-24T09:56:23.656Z,4.53
2023-04-24T09:59:11.147Z,4.50
2023-04-24T10:02:00.003Z,4.73
2023-04-24T10:05:01.004Z,4.30
2023-04-24T10:07:50.079Z,4.00
2023-04-24T10:10:41.020Z,4.63
2023-04-24T10:13:29.502Z,4.67
2023-04-24T10:16:17.004Z,6.70
2023-04-24T10:19:04.653Z,5.03
2023-04-24T10:21:52.077Z,3.87
2023-04-24T10:24:39.997Z,4.40
2023-04-24T10:27:28.286Z,4.33
2023-04-24T10:30:16.094Z,5.73
2023-04-24T10:33:08.001Z,4.07
2023-04-24T10:35:55.629Z,3.93
2023-04-24T10:38:44.760Z,3.40
2023-04-24T10:41:32.892Z,3.53
2023-04-24T10:44:23.844Z,3.70
2023-04-24T10:47:16.996Z,3.27
2023-04-24T10:50:09.230Z,4.23
2023-04-24T10:53:07.230Z,4.90
2023-04-24T10:56:03.925Z,5.33
2023-04-24T10:58:53.241Z,4.50
2023-04-24T11:01:40.715Z,4.93
2023-04-24T11:04:32.566Z,3.53
2023-04-24T11:07:22.497Z,4.67
2023-04-24T11:10:09.913Z,4.30
2023-04-24T11:12:57.351Z,3.83
2023-04-24T11:15:44.803Z,4.77
2023-04-24T11:18:38.800Z,5.03
2023-04-24T11:21:27.224Z,4.47
2023-04-24T11:24:28.081Z,5.40
2023-04-24T11:27:17.140Z,6.67
2023-04-24T11:30:05.257Z,5.90
2023-04-24T11:32:53.029Z,5.53
2023-04-24T11:35:43.320Z,6.80
2023-04-24T11:38:30.740Z,5.10
2023-04-24T11:41:18.195Z,5.97
2023-04-24T11:44:07.959Z,6.03
2023-04-24T11:46:57.714Z,6.60
2023-04-24T11:49:45.534Z,8.23
2023-04-24T11:52:33.380Z,5.97
2023-04-24T11:55:20.930Z,6.70
2023-04-24T11:58:08.430Z,6.90
2023-04-24T12:00:59.193Z,6.20
2023-04-24T12:03:50.283Z,5.90
2023-04-24T12:06:37.893Z,9.63
2023-04-24T12:09:25.272Z,7.20
2023-04-24T12:12:13.612Z,10.77
2023-04-24T12:15:02.331Z,10.40
2023-04-24T12:17:52.234Z,7.63
2023-04-24T12:20:39.728Z,9.57
2023-04-24T12:23:37.002Z,6.27
2023-04-24T12:26:25.421Z,8.87
2023-04-24T12:29:13.133Z,7.27
2023-04-24T12:32:00.686Z,6.97
2023-04-24T12:34:48.120Z,7.53
2023-04-24T12:37:37.284Z,7.37
2023-04-24T12:40:27.007Z,9.63
2023-04-24T12:43:19.680Z,7.60
2023-04-24T12:46:07.120Z,8.50
2023-04-24T12:49:13.322Z,7.93
2023-04-24T12:52:00.839Z,6.87
2023-04-24T12:54:48.200Z,7.50
2023-04-24T12:57:35.980Z,7.03
2023-04-24T13:00:23.424Z,6.13
2023-04-24T13:03:10.958Z,6.20
2023-04-24T13:05:58.381Z,6.03
2023-04-24T13:08:45.756Z,8.83
2023-04-24T13:11:33.200Z,6.57
2023-04-24T13:14:20.539Z,6.37
2023-04-24T13:17:08.592Z,5.87
2023-04-24T13:19:56.174Z,6.30
2023-04-24T13:22:43.543Z,5.03
2023-04-24T13:25:32.113Z,4.80
2023-04-24T13:28:19.511Z,6.50
2023-04-24T13:31:07.328Z,5.57
2023-04-24T13:33:54.670Z,5.73
2023-04-24T13:36:42.069Z,5.47
2023-04-24T13:39:29.476Z,4.83
2023-04-24T13:42:16.905Z,6.43
2023-04-24T13:45:17.388Z,6.47
2023-04-24T13:48:11.928Z,5.23
2023-04-24T13:51:00.556Z,5.27
2023-04-24T13:53:47.980Z,5.60
2023-04-24T13:56:35.577Z,6.67
2023-04-24T13:59:22.933Z,5.33
2023-04-24T14:02:10.492Z,6.20
2023-04-24T14:04:58.010Z,6.00
2023-04-24T14:07:45.490Z,7.67
2023-04-24T14:10:32.946Z,7.00
2023-04-24T14:13:20.363Z,8.27
2023-04-24T14:16:07.868Z,8.20
2023-04-24T14:18:55.779Z,6.90
2023-04-24T14:21:43.197Z,8.10
2023-04-24T14:24:30.548Z,5.87
2023-04-24T14:27:17.951Z,6.40
2023-04-24T14:30:05.913Z,5.27
2023-04-24T14:32:53.382Z,5.00
2023-04-24T14:35:42.904Z,4.60
2023-04-24T14:38:31.280Z,5.70
2023-04-24T14:41:18.637Z,5.83
2023-04-24T14:44:06.306Z,6.70
2023-04-24T14:46:54.335Z,6.53
2023-04-24T14:49:41.816Z,5.57
2023-04-24T14:52:29.216Z,6.37
2023-04-24T14:55:17.211Z,6.33
2023-04-24T14:58:05.348Z,6.70
2023-04-24T15:00:55.253Z,4.60
2023-04-24T15:03:42.816Z,4.67
2023-04-24T15:06:32.677Z,4.53
2023-04-24T15:09:20.033Z,4.37
2023-04-24T15:12:07.746Z,5.03
2023-04-24T15:14:55.176Z,4.97
2023-04-24T15:17:42.620Z,4.50
2023-04-24T15:20:30.005Z,4.80
2023-04-24T15:23:17.520Z,4.40
2023-04-24T15:26:04.937Z,4.77
2023-04-24T15:28:52.761Z,4.50
2023-04-24T15:31:41.161Z,4.20
2023-04-24T15:34:28.812Z,5.17
2023-04-24T15:37:16.633Z,4.80
2023-04-24T15:40:06.270Z,4.53
2023-04-24T15:42:53.870Z,4.07
2023-04-24T15:45:41.347Z,4.83
2023-04-24T15:48:29.407Z,4.43
2023-04-24T15:51:16.810Z,3.70
2023-04-24T15:54:04.296Z,5.63
2023-04-24T15:56:51.887Z,6.53
2023-04-24T15:59:39.829Z,7.90
2023-04-24T16:02:27.426Z,9.03
2023-04-24T16:05:15.021Z,9.80
2023-04-24T16:08:02.658Z,9.17
2023-04-24T16:10:50.111Z,8.93
2023-04-24T16:13:37.491Z,10.90
2023-04-24T16:16:24.924Z,10.50
2023-04-24T16:19:12.351Z,8.40
2023-04-24T16:21:59.877Z,9.43
2023-04-24T16:24:47.978Z,9.50
2023-04-24T16:27:35.586Z,8.70
2023-04-24T16:30:22.988Z,8.90
2023-04-24T16:33:10.958Z,7.27
2023-04-24T16:35:58.382Z,4.43
2023-04-24T16:38:46.134Z,4.53
2023-04-24T16:41:33.770Z,4.00
2023-04-24T16:44:21.364Z,3.97
2023-04-24T16:47:09.218Z,2.87
2023-04-24T16:49:56.705Z,4.70
2023-04-24T16:52:44.498Z,4.73
2023-04-24T16:55:31.986Z,4.30
2023-04-24T16:58:19.367Z,4.27
2023-04-24T17:01:06.804Z,6.23
2023-04-24T17:03:54.358Z,4.00
2023-04-24T17:06:42.006Z,3.53
2023-04-24T17:09:29.526Z,4.87
2023-04-24T17:12:16.915Z,5.07
2023-04-24T17:15:05.759Z,5.80
2023-04-24T17:17:53.234Z,5.63
2023-04-24T17:20:40.628Z,5.83
2023-04-24T17:23:28.001Z,5.63
2023-04-24T17:26:15.512Z,5.10
2023-04-24T17:29:03.474Z,5.37
2023-04-24T17:31:51.925Z,6.43
2023-04-24T17:34:39.602Z,5.27
2023-04-24T17:37:27.007Z,6.17
2023-04-24T17:40:14.585Z,7.77
2023-04-24T17:43:01.946Z,5.10
2023-04-24T17:45:50.163Z,6.50
2023-04-24T17:48:37.945Z,5.37
2023-04-24T17:51:25.949Z,4.30
2023-04-24T17:54:13.318Z,4.00
2023-04-24T17:57:01.615Z,7.20
2023-04-24T17:59:49.055Z,4.30
2023-04-24T18:02:36.890Z,6.53
2023-04-24T18:05:24.314Z,5.30
2023-04-24T18:08:11.661Z,4.53
2023-04-24T18:10:59.056Z,5.43
2023-04-24T18:13:46.623Z,7.10
2023-04-24T18:16:34.121Z,5.80
2023-04-24T18:19:21.637Z,6.87
2023-04-24T18:22:09.033Z,6.53
2023-04-24T18:24:56.473Z,7.23
2023-04-24T18:27:43.904Z,6.70
2023-04-24T18:30:32.376Z,6.43
2023-04-24T18:33:19.803Z,7.13
2023-04-24T18:36:07.196Z,7.83
2023-04-24T18:38:54.556Z,11.40
2023-04-24T18:41:41.924Z,9.13
2023-04-24T18:44:29.394Z,7.63
2023-04-24T18:47:16.745Z,7.40
2023-04-24T18:50:07.869Z,10.90
2023-04-24T18:52:55.385Z,12.47
2023-04-24T18:55:42.779Z,9.30
2023-04-24T18:58:30.374Z,9.33
2023-04-24T19:01:17.841Z,11.73
2023-04-24T19:04:05.420Z,11.63
2023-04-24T19:06:52.795Z,9.33
2023-04-24T19:09:40.468Z,10.30
2023-04-24T19:12:27.854Z,10.37
2023-04-24T19:15:15.221Z,8.30
2023-04-24T19:18:02.691Z,8.47
2023-04-24T19:20:50.306Z,9.63
2023-04-24T19:23:39.682Z,8.93
2023-04-24T19:26:28.250Z,7.20
2023-04-24T19:29:15.616Z,6.50
2023-04-24T19:32:03.062Z,7.60
2023-04-24T19:34:50.483Z,8.03
2023-04-24T19:37:37.930Z,8.37
2023-04-24T19:40:25.434Z,9.07
2023-04-24T19:43:12.787Z,6.43
2023-04-24T19:46:00.262Z,8.13
2023-04-24T19:48:47.879Z,9.43
2023-04-24T19:51:35.906Z,5.97
2023-04-24T19:54:23.751Z,9.50
2023-04-24T19:57:11.120Z,6.70
2023-04-24T19:59:58.508Z,5.70
2023-04-24T20:02:46.012Z,6.40
2023-04-24T20:05:33.748Z,6.63
2023-04-24T20:08:21.078Z,4.23
2023-04-24T20:11:08.463Z,4.30
2023-04-24T20:13:56.445Z,6.40
2023-04-24T20:16:43.824Z,5.73
2023-04-24T20:19:31.219Z,4.47
2023-04-24T20:22:18.668Z,5.43
2023-04-24T20:25:09.789Z,5.70
2023-04-24T20:27:57.110Z,6.83
2023-04-24T20:30:44.489Z,6.03
2023-04-24T20:33:32.281Z,4.77
2023-04-24T20:36:19.646Z,4.50
2023-04-24T20:39:08.012Z,3.63
2023-04-24T20:41:55.685Z,5.07
2023-04-24T20:44:45.452Z,5.23
2023-04-24T20:47:32.879Z,3.03
2023-04-24T20:50:20.322Z,4.23
2023-04-24T20:53:09.192Z,4.47
2023-04-24T20:55:56.540Z,5.27
2023-04-24T20:58:47.423Z,6.47
2023-04-24T21:01:34.839Z,4.13
2023-04-24T21:04:22.268Z,6.10
2023-04-24T21:07:10.292Z,6.03
2023-04-24T21:09:57.656Z,6.97
2023-04-24T21:12:45.116Z,9.27
2023-04-24T21:15:32.494Z,7.43
2023-04-24T21:18:19.867Z,4.57
2023-04-24T21:21:10.593Z,3.60
2023-04-24T21:23:57.925Z,6.07
2023-04-24T21:26:46.620Z,5.73
2023-04-24T21:29:35.687Z,7.47
2023-04-24T21:32:23.107Z,5.03
2023-04-24T21:35:10.620Z,6.00
2023-04-24T21:37:58.001Z,6.80
2023-04-24T21:40:45.512Z,6.17
2023-04-24T21:43:43.906Z,6.83
2023-04-24T21:46:32.369Z,7.13
2023-04-24T21:49:19.773Z,4.87
2023-04-24T21:52:07.759Z,6.17
2023-04-24T21:54:55.240Z,7.33
2023-04-24T21:57:42.726Z,6.17
2023-04-24T22:00:30.302Z,8.03
2023-04-24T22:03:17.890Z,5.87
2023-04-24T22:06:05.383Z,5.97
2023-04-24T22:08:52.834Z,5.77
2023-04-24T22:11:41.651Z,7.20
2023-04-24T22:14:29.009Z,8.27
2023-04-24T22:17:17.258Z,8.07
2023-04-24T22:20:05.596Z,8.40
2023-04-24T22:22:53.230Z,5.43
2023-04-24T22:25:40.564Z,6.50
2023-04-24T22:28:27.950Z,8.50
2023-04-24T22:31:15.483Z,11.87
2023-04-24T22:34:02.863Z,7.77
2023-04-24T22:36:50.215Z,7.63
2023-04-24T22:39:37.680Z,8.00
2023-04-24T22:42:25.368Z,8.07
2023-04-24T22:45:13.592Z,8.40
2023-04-24T22:48:01.084Z,9.20
2023-04-24T22:50:48.557Z,7.87
2023-04-24T22:53:36.604Z,8.27
2023-04-24T22:56:23.944Z,7.73
2023-04-24T22:59:11.287Z,11.27
2023-04-24T23:02:01.677Z,8.80
2023-04-24T23:04:49.092Z,6.93
2023-04-24T23:07:37.591Z,10.10
2023-04-24T23:10:25.024Z,9.07
2023-04-24T23:13:12.418Z,8.13
2023-04-24T23:16:00.102Z,8.73
2023-04-24T23:18:47.704Z,10.37
2023-04-24T23:21:35.271Z,8.73
2023-04-24T23:24:22.907Z,8.20
2023-04-24T23:27:10.316Z,9.40
2023-04-24T23:29:57.700Z,8.33
2023-04-24T23:32:45.486Z,8.43
2023-04-24T23:35:32.988Z,6.60
2023-04-24T23:38:20.442Z,8.77
2023-04-24T23:41:07.866Z,7.27
2023-04-24T23:43:55.229Z,11.50
2023-04-24T23:46:42.595Z,5.77
2023-04-24T23:49:29.955Z,10.17
2023-04-24T23:52:17.311Z,7.30
2023-04-24T23:55:04.957Z,9.60
2023-04-24T23:57:52.330Z,8.30
